Time;durP1;ratioP1;P1;durP2;ratioP2;P2;SDS_P1;SDS_P2;PMS_P1;PMS_P2;Temp;Humidity;BMP_temperature;BMP_pressure;BME280_temperature;BME280_humidity;BME280_pressure;Samples;Min_cycle;Max_cycle;Signal;HPM_P1;HPM_P2
2023/05/03 00:01:29;;;;;;;9.03;8.23;;;;;;;6.34;nan;97741.25;4933358;28;20752;-59
2023/05/03 00:03:56;;;;;;;8.20;7.50;;;;;;;6.30;nan;97742.50;4906831;28;20265;-61
2023/05/03 00:06:25;;;;;;;8.57;7.87;;;;;;;6.26;nan;97732.41;4951868;28;20213;-60
2023/05/03 00:08:53;;;;;;;8.00;7.30;;;;;;;6.27;nan;97741.97;4929874;28;20880;-56
2023/05/03 00:11:21;;;;;;;8.47;7.77;;;;;;;6.31;nan;97740.69;4950969;28;20719;-57
2023/05/03 00:13:49;;;;;;;9.53;8.73;;;;;;;6.33;nan;97738.75;4918327;28;20300;-59
2023/05/03 00:16:17;;;;;;;9.10;8.40;;;;;;;6.22;nan;97737.97;4930273;28;20225;-61
2023/05/03 00:18:45;;;;;;;8.20;7.50;;;;;;;6.15;nan;97741.28;4901824;28;20887;-61
2023/05/03 00:21:14;;;;;;;7.97;7.37;;;;;;;6.10;nan;97733.00;4952471;28;20216;-58
2023/05/03 00:23:43;;;;;;;8.20;7.60;;;;;;;6.02;nan;97736.31;4950573;28;20760;-56
2023/05/03 00:26:11;;;;;;;9.03;8.27;;;;;;;6.01;nan;97745.19;4933537;28;20737;-58
2023/05/03 00:28:39;;;;;;;8.90;8.20;;;;;;;5.98;nan;97743.66;4954749;28;20447;-58
2023/05/03 00:31:07;;;;;;;9.70;8.80;;;;;;;5.88;nan;97735.78;4932234;28;20498;-60
2023/05/03 00:33:35;;;;;;;8.57;7.87;;;;;;;5.93;nan;97735.38;4887991;28;20954;-58
2023/05/03 00:36:09;;;;;;;8.80;8.10;;;;;;;5.89;nan;97729.53;4955991;28;20273;-59
2023/05/03 00:38:37;;;;;;;9.67;8.87;;;;;;;5.90;nan;97741.72;4947235;28;20233;-60
2023/05/03 00:41:06;;;;;;;9.23;8.37;;;;;;;5.83;nan;97734.53;4933690;28;20398;-55
2023/05/03 00:43:34;;;;;;;10.23;9.33;;;;;;;5.79;nan;97724.28;4952448;28;20217;-56
2023/05/03 00:46:03;;;;;;;9.57;8.67;;;;;;;5.85;nan;97732.59;4931718;28;20221;-57
2023/05/03 00:48:42;;;;;;;8.87;8.17;;;;;;;5.78;nan;97727.06;4889390;28;20939;-57
2023/05/03 00:51:12;;;;;;;8.27;7.67;;;;;;;5.76;nan;97721.13;4953612;28;20260;-62
2023/05/03 00:53:40;;;;;;;9.57;8.87;;;;;;;5.70;nan;97732.22;4950538;28;20437;-62
2023/05/03 00:56:10;;;;;;;9.27;8.43;;;;;;;5.71;nan;97726.78;4932875;28;20796;-60
2023/05/03 00:58:39;;;;;;;10.40;9.60;;;;;;;5.68;nan;97721.81;4946115;28;20513;-53
2023/05/03 01:01:07;;;;;;;9.47;8.57;;;;;;;5.63;nan;97722.22;4933038;28;20210;-56
2023/05/03 01:03:36;;;;;;;10.10;9.10;;;;;;;5.68;nan;97727.06;4884063;28;20840;-58
2023/05/03 01:06:10;;;;;;;9.73;8.93;;;;;;;5.65;nan;97727.34;4953352;28;20206;-63
2023/05/03 01:08:43;;;;;;;9.20;8.50;;;;;;;5.64;nan;97726.50;4949116;28;20863;-58
2023/05/03 01:11:17;;;;;;;9.90;9.00;;;;;;;5.59;nan;97733.19;4949345;28;20726;-60
2023/05/03 01:13:52;;;;;;;9.80;9.00;;;;;;;5.61;nan;97725.97;4946869;28;20288;-58
2023/05/03 01:16:26;;;;;;;11.37;10.27;;;;;;;5.65;nan;97732.63;4934452;28;20475;-60
2023/05/03 01:18:56;;;;;;;10.00;9.20;;;;;;;5.64;nan;97726.50;4936169;28;20237;-55
2023/05/03 01:21:25;;;;;;;10.30;9.40;;;;;;;5.59;nan;97734.00;4902079;28;20240;-56
2023/05/03 01:23:57;;;;;;;10.30;9.33;;;;;;;5.52;nan;97735.50;4952454;28;20639;-57
2023/05/03 01:26:27;;;;;;;10.73;9.83;;;;;;;5.54;nan;97727.50;4933126;28;20267;-59
2023/05/03 01:28:55;;;;;;;9.93;9.13;;;;;;;5.44;nan;97724.88;4954226;28;20224;-57
2023/05/03 01:31:27;;;;;;;10.10;9.10;;;;;;;5.56;nan;97731.63;4945396;28;20265;-58
2023/05/03 01:34:03;;;;;;;10.33;9.33;;;;;;;5.62;nan;97735.53;4913921;28;20244;-61
2023/05/03 01:36:32;;;;;;;11.17;10.13;;;;;;;5.78;nan;97734.97;4902792;28;20224;-55
2023/05/03 01:39:03;;;;;;;9.87;9.07;;;;;;;5.83;nan;97730.09;4952765;28;20937;-59
2023/05/03 01:41:33;;;;;;;11.03;10.00;;;;;;;5.89;nan;97731.34;4949393;28;20206;-60
2023/05/03 01:44:01;;;;;;;11.10;10.00;;;;;;;5.99;nan;97729.53;4936790;28;20264;-59
2023/05/03 01:46:28;;;;;;;10.83;9.93;;;;;;;5.99;nan;97728.69;4950087;28;20229;-61
2023/05/03 01:48:56;;;;;;;11.93;10.07;;;;;;;6.11;nan;97727.59;4931199;28;20723;-59
2023/05/03 01:51:24;;;;;;;10.30;9.40;;;;;;;6.19;nan;97725.09;4890260;28;20376;-62
2023/05/03 01:53:52;;;;;;;11.47;10.27;;;;;;;6.16;nan;97722.75;4924574;28;20217;-58
2023/05/03 01:56:20;;;;;;;11.20;10.07;;;;;;;6.30;nan;97732.00;4951753;28;21186;-58
2023/05/03 01:58:49;;;;;;;10.57;9.47;;;;;;;6.38;nan;97728.63;4936014;28;20232;-55
2023/05/03 02:01:17;;;;;;;10.60;9.60;;;;;;;6.43;nan;97731.66;4938413;28;20210;-61
2023/05/03 02:03:44;;;;;;;9.47;8.70;;;;;;;6.56;nan;97730.50;4926118;28;20703;-57
2023/05/03 02:06:12;;;;;;;10.43;9.63;;;;;;;6.51;nan;97723.03;4930963;28;20312;-58
2023/05/03 02:08:40;;;;;;;10.40;9.50;;;;;;;6.59;nan;97725.75;4895359;28;20237;-61
2023/05/03 02:11:08;;;;;;;9.67;8.87;;;;;;;6.62;nan;97719.41;4936713;28;20973;-56
2023/05/03 02:13:37;;;;;;;10.47;9.47;;;;;;;6.53;nan;97718.44;4952416;28;20963;-60
2023/05/03 02:16:08;;;;;;;10.60;9.53;;;;;;;6.56;nan;97720.78;4935103;28;20872;-58
2023/05/03 02:18:36;;;;;;;9.70;8.67;;;;;;;6.59;nan;97715.22;4928654;28;20237;-61
2023/05/03 02:21:05;;;;;;;21.10;9.80;;;;;;;6.56;nan;97715.53;4933272;28;20768;-63
2023/05/03 02:23:33;;;;;;;9.27;8.47;;;;;;;6.62;nan;97717.56;4901498;28;20220;-61
2023/05/03 02:26:00;;;;;;;10.17;9.27;;;;;;;6.75;nan;97724.31;4950927;28;20871;-59
2023/05/03 02:28:28;;;;;;;10.63;9.73;;;;;;;6.78;nan;97719.56;4953370;28;20295;-61
2023/05/03 02:30:56;;;;;;;10.53;9.60;;;;;;;6.73;nan;97728.91;4930273;28;20225;-58
2023/05/03 02:33:25;;;;;;;9.50;8.70;;;;;;;6.73;nan;97710.47;4931656;28;20472;-62
2023/05/03 02:35:53;;;;;;;9.70;8.80;;;;;;;6.73;nan;97729.72;4899559;28;20828;-56
2023/05/03 02:38:21;;;;;;;10.85;9.80;;;;;;;6.67;nan;97719.78;4929188;28;20464;-59
2023/05/03 02:40:49;;;;;;;10.00;9.00;;;;;;;6.71;nan;97721.16;4901749;28;20252;-61
2023/05/03 02:43:17;;;;;;;10.90;9.83;;;;;;;6.72;nan;97730.69;4954617;28;20713;-59
2023/05/03 02:45:44;;;;;;;9.60;8.70;;;;;;;6.70;nan;97716.03;4916389;28;20214;-57
2023/05/03 02:48:12;;;;;;;10.07;9.17;;;;;;;6.71;nan;97725.59;4949767;28;20718;-58
2023/05/03 02:50:41;;;;;;;9.83;8.80;;;;;;;6.66;nan;97713.69;4922729;28;20222;-59
2023/05/03 02:53:09;;;;;;;10.53;9.50;;;;;;;6.68;nan;97724.06;4932638;28;20725;-62
2023/05/03 02:55:36;;;;;;;10.07;9.20;;;;;;;6.70;nan;97721.31;4906088;28;20218;-61
2023/05/03 02:58:04;;;;;;;10.00;9.00;;;;;;;6.70;nan;97716.03;4950993;28;20804;-56
2023/05/03 03:00:32;;;;;;;10.77;9.80;;;;;;;6.66;nan;97723.38;4929066;28;20213;-58
2023/05/03 03:02:59;;;;;;;11.77;9.03;;;;;;;6.63;nan;97718.41;4936612;28;20213;-59
2023/05/03 03:05:27;;;;;;;11.43;10.23;;;;;;;6.65;nan;97722.56;4926928;28;20736;-60
2023/05/03 03:07:56;;;;;;;9.87;8.87;;;;;;;6.74;nan;97714.78;4930380;28;20716;-58
2023/05/03 03:10:24;;;;;;;10.87;9.80;;;;;;;6.68;nan;97718.00;4900096;28;23192;-57
2023/05/03 03:12:51;;;;;;;10.40;8.93;;;;;;;6.63;nan;97723.69;4929814;28;20241;-58
2023/05/03 03:15:19;;;;;;;9.93;9.03;;;;;;;6.62;nan;97717.56;4931816;28;20276;-59
2023/05/03 03:17:47;;;;;;;9.80;8.90;;;;;;;6.68;nan;97715.34;4938188;28;20637;-60
2023/05/03 03:20:14;;;;;;;9.23;8.43;;;;;;;6.70;nan;97721.31;4929738;28;20214;-62
2023/05/03 03:22:44;;;;;;;10.70;9.60;;;;;;;6.61;nan;97718.53;4930213;28;20659;-59
2023/05/03 03:25:13;;;;;;;9.80;8.90;;;;;;;6.59;nan;97720.50;4958003;28;20704;-56
2023/05/03 03:27:40;;;;;;;10.30;9.20;;;;;;;6.51;nan;97715.97;4901878;28;20996;-59
2023/05/03 03:30:10;;;;;;;11.47;10.40;;;;;;;6.54;nan;97719.28;4948012;28;20323;-60
2023/05/03 03:32:38;;;;;;;10.20;9.10;;;;;;;6.55;nan;97727.03;4913379;28;20256;-60
2023/05/03 03:35:07;;;;;;;10.37;9.47;;;;;;;6.59;nan;97724.94;4931458;28;21571;-61
2023/05/03 03:37:35;;;;;;;9.63;8.73;;;;;;;6.58;nan;97731.19;4947761;28;20877;-58
2023/05/03 03:40:02;;;;;;;10.07;9.27;;;;;;;6.60;nan;97729.25;4942101;28;20209;-55
2023/05/03 03:42:32;;;;;;;9.77;8.93;;;;;;;6.44;nan;97728.06;4906742;28;21815;-57
2023/05/03 03:44:59;;;;;;;11.10;9.83;;;;;;;6.40;nan;97739.84;4955400;28;20205;-58
2023/05/03 03:47:27;;;;;;;10.33;9.43;;;;;;;6.34;nan;97743.03;4933986;28;20449;-61
2023/05/03 03:49:55;;;;;;;10.80;9.77;;;;;;;6.31;nan;97743.31;4952075;28;20198;-62
2023/05/03 03:52:22;;;;;;;10.40;9.43;;;;;;;6.27;nan;97744.59;4935372;28;20349;-55
2023/05/03 03:54:51;;;;;;;10.33;9.33;;;;;;;6.22;nan;97745.00;4930970;28;20734;-61
2023/05/03 03:57:18;;;;;;;10.53;9.63;;;;;;;6.22;nan;97747.63;4905583;28;20229;-57
2023/05/03 03:59:47;;;;;;;10.70;9.73;;;;;;;6.23;nan;97744.88;4950754;28;20675;-59
2023/05/03 04:02:16;;;;;;;11.47;10.27;;;;;;;6.17;nan;97755.13;4953681;28;20209;-60
2023/05/03 04:04:45;;;;;;;10.57;9.43;;;;;;;6.11;nan;97743.41;4937843;28;20729;-57
2023/05/03 04:07:13;;;;;;;11.07;10.00;;;;;;;6.23;nan;97747.50;4933489;28;20221;-59
2023/05/03 04:09:41;;;;;;;11.37;10.33;;;;;;;6.23;nan;97747.50;4931140;28;20787;-61
2023/05/03 04:12:08;;;;;;;11.53;10.33;;;;;;;6.34;nan;97749.16;4956126;28;20287;-60
2023/05/03 04:14:36;;;;;;;12.17;9.77;;;;;;;6.32;nan;97751.09;4906300;28;20220;-58
2023/05/03 04:17:05;;;;;;;9.10;8.40;;;;;;;6.40;nan;97749.53;4954710;28;20217;-62
2023/05/03 04:19:33;;;;;;;11.60;10.40;;;;;;;6.45;nan;97744.69;4932529;28;22348;-61
2023/05/03 04:22:00;;;;;;;11.57;10.43;;;;;;;6.42;nan;97747.59;4933302;28;20449;-62
2023/05/03 04:24:29;;;;;;;12.70;9.60;;;;;;;6.43;nan;97749.25;4937165;28;20610;-60
2023/05/03 04:26:57;;;;;;;10.93;9.87;;;;;;;6.43;nan;97754.53;4949358;28;20462;-59
2023/05/03 04:29:25;;;;;;;11.37;10.17;;;;;;;6.38;nan;97752.31;4907100;28;20370;-58
2023/05/03 04:31:53;;;;;;;12.37;11.20;;;;;;;6.39;nan;97756.59;4954822;28;20676;-60
2023/05/03 04:34:23;;;;;;;12.17;10.97;;;;;;;6.36;nan;97768.25;4910660;28;20292;-57
2023/05/03 04:36:51;;;;;;;11.90;9.70;;;;;;;6.49;nan;97761.84;4930356;28;20256;-56
2023/05/03 04:39:19;;;;;;;10.03;9.17;;;;;;;6.46;nan;97762.13;4941233;28;20404;-60
2023/05/03 04:41:46;;;;;;;11.27;10.17;;;;;;;6.56;nan;97762.91;4948549;28;20209;-57
2023/05/03 04:44:14;;;;;;;11.43;10.43;;;;;;;6.58;nan;97760.97;4904649;28;20693;-59
2023/05/03 04:46:42;;;;;;;11.13;10.03;;;;;;;6.60;nan;97759.03;4950289;28;20436;-59
2023/05/03 04:49:10;;;;;;;11.37;10.27;;;;;;;6.60;nan;97761.66;4955867;28;20677;-60
2023/05/03 04:51:39;;;;;;;12.23;11.23;;;;;;;6.53;nan;97757.94;4911760;28;20292;-57
2023/05/03 04:54:06;;;;;;;11.17;10.07;;;;;;;6.57;nan;97767.22;4954307;28;20416;-59
2023/05/03 04:56:34;;;;;;;11.47;10.00;;;;;;;6.63;nan;97763.19;4931006;28;20907;-56
2023/05/03 04:59:03;;;;;;;11.43;10.37;;;;;;;6.79;nan;97759.94;4948937;28;22535;-61
2023/05/03 05:01:31;;;;;;;10.70;9.77;;;;;;;6.81;nan;97774.59;4912243;28;20228;-58
2023/05/03 05:03:59;;;;;;;12.13;10.93;;;;;;;6.84;nan;97768.22;4957151;28;20737;-61
2023/05/03 05:06:27;;;;;;;11.93;10.73;;;;;;;6.90;nan;97769.44;4934337;28;20215;-61
2023/05/03 05:08:56;;;;;;;12.17;10.80;;;;;;;7.06;nan;97767.00;4931593;28;20229;-62
2023/05/03 05:11:24;;;;;;;11.00;10.00;;;;;;;7.10;nan;97770.19;4933935;28;20229;-63
2023/05/03 05:13:51;;;;;;;12.87;11.70;;;;;;;7.27;nan;97779.09;4955663;28;20233;-57
2023/05/03 05:16:19;;;;;;;11.57;10.50;;;;;;;7.33;nan;97775.03;4904947;28;20288;-61
2023/05/03 05:18:47;;;;;;;14.63;13.32;;;;;;;7.47;nan;97773.69;4955249;28;20907;-59
2023/05/03 05:21:15;;;;;;;11.57;10.47;;;;;;;7.46;nan;97778.16;4948271;28;20571;-59
2023/05/03 05:23:43;;;;;;;12.83;11.63;;;;;;;7.72;nan;97776.56;4918944;28;20716;-63
2023/05/03 05:26:12;;;;;;;13.03;11.73;;;;;;;7.92;nan;97774.59;4935257;28;20244;-59
2023/05/03 05:28:40;;;;;;;11.93;10.90;;;;;;;7.93;nan;97781.53;4949397;28;20603;-58
2023/05/03 05:31:08;;;;;;;13.30;11.97;;;;;;;8.05;nan;97775.00;4954270;28;20213;-58
2023/05/03 05:33:35;;;;;;;11.83;10.73;;;;;;;8.21;nan;97776.13;4908957;28;20222;-60
2023/05/03 05:36:05;;;;;;;13.33;11.87;;;;;;;8.33;nan;97771.41;4953081;28;20217;-61
2023/05/03 05:38:32;;;;;;;12.10;11.03;;;;;;;8.39;nan;97776.91;4904405;28;20603;-58
2023/05/03 05:41:00;;;;;;;12.97;11.73;;;;;;;8.43;nan;97777.44;4952046;28;20256;-60
2023/05/03 05:43:29;;;;;;;12.67;11.37;;;;;;;8.51;nan;97792.50;4931011;28;20224;-60
2023/05/03 05:45:57;;;;;;;12.33;11.03;;;;;;;8.65;nan;97786.66;4955844;28;20825;-59
2023/05/03 05:48:25;;;;;;;14.00;12.70;;;;;;;8.77;nan;97802.25;4902637;28;21069;-60
2023/05/03 05:50:52;;;;;;;12.77;11.57;;;;;;;8.97;nan;97800.19;4923751;28;20221;-57
2023/05/03 05:53:20;;;;;;;13.80;12.33;;;;;;;9.02;nan;97805.00;4931194;28;20233;-59
2023/05/03 05:55:48;;;;;;;12.13;11.17;;;;;;;9.31;nan;97799.31;4929813;28;20626;-62
2023/05/03 05:58:15;;;;;;;13.00;11.87;;;;;;;9.43;nan;97796.38;4928764;28;20589;-58
2023/05/03 06:00:47;;;;;;;12.80;11.63;;;;;;;9.51;nan;97801.72;4941324;28;20633;-61
2023/05/03 06:03:15;;;;;;;13.57;12.40;;;;;;;9.65;nan;97797.56;4905740;28;20463;-58
2023/05/03 06:05:43;;;;;;;12.60;11.33;;;;;;;9.80;nan;97795.97;4927171;28;20240;-59
2023/05/03 06:08:12;;;;;;;14.50;13.10;;;;;;;9.82;nan;97796.63;4950697;28;20502;-61
2023/05/03 06:10:39;;;;;;;13.47;12.33;;;;;;;9.89;nan;97793.31;4916325;28;20863;-60
2023/05/03 06:13:07;;;;;;;13.77;12.57;;;;;;;10.10;nan;97790.19;4936327;28;20531;-59
2023/05/03 06:15:35;;;;;;;13.07;11.90;;;;;;;10.23;nan;97798.47;4957531;28;20386;-59
2023/05/03 06:18:04;;;;;;;12.37;11.37;;;;;;;10.22;nan;97796.78;4901352;28;20743;-58
2023/05/03 06:20:32;;;;;;;11.60;10.70;;;;;;;10.24;nan;97794.81;4954010;28;20260;-59
2023/05/03 06:23:00;;;;;;;13.10;11.90;;;;;;;10.42;nan;97792.03;4930869;28;20407;-58
2023/05/03 06:25:28;;;;;;;12.60;11.50;;;;;;;10.57;nan;97797.44;4925990;28;21036;-58
2023/05/03 06:27:55;;;;;;;11.47;10.57;;;;;;;10.74;nan;97804.50;4951379;28;20868;-60
2023/05/03 06:30:24;;;;;;;11.77;10.67;;;;;;;10.80;nan;97806.50;4932222;28;20310;-62
2023/05/03 06:32:52;;;;;;;12.33;11.23;;;;;;;10.86;nan;97806.63;4950475;28;20236;-58
2023/05/03 06:35:21;;;;;;;12.63;11.37;;;;;;;10.66;nan;97800.91;4913122;28;20228;-54
2023/05/03 06:37:49;;;;;;;11.60;10.60;;;;;;;10.90;nan;97803.66;4935713;28;20241;-61
2023/05/03 06:40:16;;;;;;;11.27;10.20;;;;;;;10.94;nan;97810.25;4957961;28;20275;-59
2023/05/03 06:42:50;;;;;;;12.57;11.37;;;;;;;11.13;nan;97804.56;4933759;28;20226;-58
2023/05/03 06:45:18;;;;;;;12.97;11.87;;;;;;;11.25;nan;97805.00;4934646;28;20220;-60
2023/05/03 06:47:46;;;;;;;11.43;10.33;;;;;;;11.17;nan;97817.47;4948717;28;20237;-59
2023/05/03 06:50:13;;;;;;;12.53;11.53;;;;;;;11.07;nan;97809.72;4909000;28;20809;-61
2023/05/03 06:52:42;;;;;;;12.00;10.90;;;;;;;10.90;nan;97811.59;4937300;28;20269;-60
2023/05/03 06:55:10;;;;;;;11.80;10.67;;;;;;;11.05;nan;97804.59;4957347;28;20260;-58
2023/05/03 06:57:38;;;;;;;12.17;10.97;;;;;;;11.19;nan;97811.00;4935666;28;20214;-62
2023/05/03 07:00:08;;;;;;;11.20;10.10;;;;;;;11.50;nan;97812.03;4935189;28;20284;-62
2023/05/03 07:02:36;;;;;;;11.20;10.07;;;;;;;11.35;nan;97817.22;4956513;28;20978;-61
2023/05/03 07:05:04;;;;;;;10.87;9.97;;;;;;;11.30;nan;97812.44;4957792;28;20202;-61
2023/05/03 07:07:32;;;;;;;11.67;10.70;;;;;;;11.42;nan;97808.41;4913027;28;20221;-58
2023/05/03 07:10:02;;;;;;;9.97;8.97;;;;;;;11.39;nan;97807.94;4935691;28;20545;-57
2023/05/03 07:12:30;;;;;;;11.53;10.53;;;;;;;11.43;nan;97801.28;4935046;28;20217;-60
2023/05/03 07:14:58;;;;;;;10.10;9.20;;;;;;;11.41;nan;97800.63;4937931;28;23162;-63
2023/05/03 07:17:26;;;;;;;11.70;10.70;;;;;;;11.40;nan;97799.81;4953819;28;21042;-60
2023/05/03 07:19:54;;;;;;;10.47;9.60;;;;;;;11.10;nan;97796.13;4953847;28;20209;-58
2023/05/03 07:22:23;;;;;;;12.13;11.03;;;;;;;11.22;nan;97802.72;4914708;28;20346;-61
2023/05/03 07:24:53;;;;;;;12.07;11.13;;;;;;;11.72;nan;97784.66;4923037;28;20663;-59
2023/05/03 07:27:22;;;;;;;11.73;10.60;;;;;;;11.91;nan;97797.63;4928505;28;20272;-57
2023/05/03 07:29:50;;;;;;;11.37;10.37;;;;;;;12.04;nan;97783.81;4959909;28;20643;-58
2023/05/03 07:32:17;;;;;;;11.60;10.60;;;;;;;12.28;nan;97785.41;4935691;28;20257;-55
2023/05/03 07:34:45;;;;;;;11.10;10.10;;;;;;;12.38;nan;97787.81;4954803;28;20233;-59
2023/05/03 07:37:13;;;;;;;12.27;11.07;;;;;;;12.23;nan;97785.97;4910958;28;21599;-60
2023/05/03 07:39:41;;;;;;;11.53;10.43;;;;;;;12.29;nan;97781.75;4936846;28;20226;-60
2023/05/03 07:42:08;;;;;;;11.10;10.17;;;;;;;12.51;nan;97781.91;4952345;28;20301;-60
2023/05/03 07:44:37;;;;;;;11.93;10.83;;;;;;;12.57;nan;97781.16;4935496;28;21296;-60
2023/05/03 07:47:05;;;;;;;11.17;10.07;;;;;;;12.97;nan;97784.38;4925519;28;20404;-58
2023/05/03 07:49:35;;;;;;;11.13;10.20;;;;;;;12.83;nan;97779.91;4954369;28;20647;-58
2023/05/03 07:52:03;;;;;;;11.47;10.33;;;;;;;13.01;nan;97779.53;4892888;28;21626;-58
2023/05/03 07:54:30;;;;;;;10.80;10.10;;;;;;;12.77;nan;97770.00;4932646;28;20244;-60
2023/05/03 07:56:58;;;;;;;10.93;10.13;;;;;;;12.86;nan;97775.03;4950476;28;20815;-59
2023/05/03 07:59:26;;;;;;;11.43;10.40;;;;;;;12.85;nan;97769.91;4933968;28;20899;-59
2023/05/03 08:01:55;;;;;;;11.57;10.77;;;;;;;12.81;nan;97774.75;4933729;28;20213;-58
2023/05/03 08:04:23;;;;;;;10.83;9.93;;;;;;;13.10;nan;97782.91;4955987;28;20202;-59
2023/05/03 08:06:51;;;;;;;10.60;9.70;;;;;;;12.93;nan;97776.97;4947407;28;20206;-60
2023/05/03 08:09:19;;;;;;;10.73;9.93;;;;;;;13.09;nan;97775.94;4908870;28;20611;-59
2023/05/03 08:11:47;;;;;;;10.77;10.07;;;;;;;13.47;nan;97775.81;4934836;28;20222;-60
2023/05/03 08:14:15;;;;;;;10.70;9.70;;;;;;;13.64;nan;97776.41;4934254;28;20241;-59
2023/05/03 08:16:43;;;;;;;11.23;10.13;;;;;;;13.75;nan;97777.72;4939847;28;20271;-59
2023/05/03 08:19:12;;;;;;;11.53;10.53;;;;;;;13.69;nan;97776.66;4942178;28;20558;-60
2023/05/03 08:21:39;;;;;;;9.97;9.07;;;;;;;13.70;nan;97777.47;4955775;28;20677;-59
2023/05/03 08:24:08;;;;;;;10.23;9.33;;;;;;;13.95;nan;97771.75;4902668;28;20488;-58
2023/05/03 08:26:36;;;;;;;10.43;9.52;;;;;;;13.68;nan;97774.16;4953644;28;20544;-60
2023/05/03 08:29:04;;;;;;;9.70;8.70;;;;;;;14.20;nan;97769.50;4911535;28;20288;-57
2023/05/03 08:31:32;;;;;;;9.63;9.03;;;;;;;15.05;nan;97768.63;4947264;28;20205;-60
2023/05/03 08:34:00;;;;;;;8.73;8.13;;;;;;;15.19;nan;97766.84;4936206;28;20236;-62
2023/05/03 08:36:30;;;;;;;10.37;9.57;;;;;;;15.37;nan;97765.50;4955526;28;21107;-59
2023/05/03 08:38:58;;;;;;;11.10;10.20;;;;;;;15.50;nan;97768.19;4901663;28;20863;-57
2023/05/03 08:41:28;;;;;;;10.97;10.07;;;;;;;15.40;nan;97770.41;4956421;28;20289;-60
2023/05/03 08:43:58;;;;;;;10.53;9.73;;;;;;;15.47;nan;97769.41;4954096;28;20205;-56
2023/05/03 08:46:27;;;;;;;9.63;8.93;;;;;;;15.40;nan;97760.56;4931547;28;20221;-57
2023/05/03 08:48:55;;;;;;;9.20;8.50;;;;;;;15.34;nan;97772.88;4932397;28;20359;-61
2023/05/03 08:51:24;;;;;;;9.60;8.90;;;;;;;15.23;nan;97764.63;4956449;28;20218;-58
2023/05/03 08:53:53;;;;;;;9.30;8.60;;;;;;;14.89;nan;97764.44;4898351;28;20963;-58
2023/05/03 08:56:26;;;;;;;10.13;9.23;;;;;;;14.41;nan;97765.97;4953370;28;20466;-57
2023/05/03 08:58:54;;;;;;;9.03;8.43;;;;;;;14.21;nan;97773.03;4952551;28;20561;-55
2023/05/03 09:01:22;;;;;;;9.53;8.93;;;;;;;14.09;nan;97773.53;4936187;28;20218;-55
2023/05/03 09:03:51;;;;;;;10.90;10.03;;;;;;;14.26;nan;97770.59;4933598;28;21930;-58
2023/05/03 09:06:21;;;;;;;10.20;9.40;;;;;;;14.43;nan;97769.28;4954435;28;20680;-60
2023/05/03 09:08:48;;;;;;;10.83;9.93;;;;;;;14.39;nan;97769.84;4899716;28;20734;-58
2023/05/03 09:11:26;;;;;;;10.00;9.17;;;;;;;14.61;nan;97779.44;4955734;28;20682;-62
2023/05/03 09:13:54;;;;;;;10.93;10.03;;;;;;;14.56;nan;97783.72;4950386;28;20721;-56
2023/05/03 09:16:23;;;;;;;10.60;9.70;;;;;;;14.42;nan;97777.47;4933668;28;20209;-58
2023/05/03 09:18:57;;;;;;;9.77;8.97;;;;;;;15.18;nan;97775.88;4954577;28;20308;-58
2023/05/03 09:21:25;;;;;;;10.23;9.33;;;;;;;15.39;nan;97769.59;4928633;28;20220;-60
2023/05/03 09:23:53;;;;;;;9.27;8.57;;;;;;;15.92;nan;97770.78;4949079;28;20503;-56
2023/05/03 09:26:29;;;;;;;9.50;8.70;;;;;;;16.13;nan;97782.28;4907063;28;20214;-57
2023/05/03 09:28:59;;;;;;;9.80;9.10;;;;;;;15.81;nan;97784.69;4949410;28;20233;-62
2023/05/03 09:31:27;;;;;;;10.30;9.60;;;;;;;15.91;nan;97780.63;4954046;28;20214;-59
2023/05/03 09:33:55;;;;;;;10.73;9.60;;;;;;;15.64;nan;97787.75;4937744;28;20419;-56
2023/05/03 09:36:23;;;;;;;9.67;8.97;;;;;;;16.08;nan;97780.22;4934577;28;20315;-61
2023/05/03 09:38:52;;;;;;;9.60;8.80;;;;;;;15.80;nan;97773.19;4948896;28;20502;-64
2023/05/03 09:41:31;;;;;;;10.30;9.43;;;;;;;15.99;nan;97781.44;4907756;28;20221;-58
2023/05/03 09:44:01;;;;;;;9.90;9.20;;;;;;;16.01;nan;97780.22;4952179;28;20213;-64
2023/05/03 09:46:29;;;;;;;9.60;8.90;;;;;;;16.14;nan;97773.25;4954366;28;20209;-59
2023/05/03 09:48:57;;;;;;;8.20;7.60;;;;;;;16.13;nan;97768.91;4930398;28;20461;-56
2023/05/03 09:51:26;;;;;;;9.70;8.90;;;;;;;15.86;nan;97774.19;4931250;28;20218;-61
2023/05/03 09:53:54;;;;;;;9.30;8.53;;;;;;;15.68;nan;97780.97;4948689;28;20705;-58
2023/05/03 09:56:25;;;;;;;9.27;8.50;;;;;;;15.48;nan;97773.72;4905853;28;20500;-57
2023/05/03 09:58:54;;;;;;;9.60;8.83;;;;;;;15.55;nan;97775.59;4952044;28;20853;-56
2023/05/03 10:01:24;;;;;;;9.67;8.77;;;;;;;15.71;nan;97777.88;4954074;28;20232;-59
2023/05/03 10:03:53;;;;;;;10.03;9.23;;;;;;;15.25;nan;97773.25;4926957;28;20557;-60
2023/05/03 10:06:25;;;;;;;9.17;8.50;;;;;;;15.15;nan;97777.13;4934830;28;20224;-59
2023/05/03 10:08:55;;;;;;;9.60;8.83;;;;;;;15.22;nan;97776.31;4938605;28;20311;-59
2023/05/03 10:11:24;;;;;;;10.33;9.47;;;;;;;14.99;nan;97777.44;4954027;28;20209;-60
2023/05/03 10:13:54;;;;;;;9.47;8.77;;;;;;;15.35;nan;97771.00;4919456;28;20560;-56
2023/05/03 10:16:26;;;;;;;9.87;9.17;;;;;;;15.46;nan;97767.75;4957532;28;20670;-57
2023/05/03 10:18:58;;;;;;;10.27;9.57;;;;;;;15.13;nan;97764.97;4953055;28;20292;-61
2023/05/03 10:21:35;;;;;;;10.23;9.23;;;;;;;15.09;nan;97764.53;4932826;28;20865;-61
2023/05/03 10:24:11;;;;;;;9.83;8.73;;;;;;;15.08;nan;97764.75;4951046;28;21327;-58
2023/05/03 10:26:41;;;;;;;9.37;8.43;;;;;;;14.97;nan;97761.63;4914014;28;20208;-63
2023/05/03 10:30:01;;;;;;;10.07;9.17;;;;;;;15.15;nan;97754.94;4958356;28;20240;-58
2023/05/03 10:32:32;;;;;;;9.83;9.10;;;;;;;15.40;nan;97755.22;4954705;28;20615;-59
2023/05/03 10:35:02;;;;;;;9.63;8.93;;;;;;;15.27;nan;97761.31;4951676;28;21190;-62
2023/05/03 10:37:33;;;;;;;9.83;9.00;;;;;;;15.01;nan;97757.56;4908207;28;20211;-60
2023/05/03 10:40:09;;;;;;;9.30;8.60;;;;;;;14.84;nan;97758.88;4925278;28;21352;-58
2023/05/03 10:42:38;;;;;;;9.03;8.33;;;;;;;14.67;nan;97750.34;4924543;28;20214;-62
2023/05/03 10:45:08;;;;;;;9.27;8.47;;;;;;;14.81;nan;97753.94;4952943;28;20213;-58
2023/05/03 10:47:39;;;;;;;9.27;8.47;;;;;;;14.69;nan;97753.63;4956848;28;20210;-60
2023/05/03 10:50:26;;;;;;;8.03;7.43;;;;;;;14.48;nan;97756.19;4957062;28;20214;-57
2023/05/03 10:52:54;;;;;;;8.17;7.47;;;;;;;14.62;nan;97750.94;4917422;28;20427;-57
2023/05/03 10:55:24;;;;;;;7.97;7.33;;;;;;;14.98;nan;97749.94;4938122;28;20242;-59
2023/05/03 10:57:55;;;;;;;8.33;7.53;;;;;;;15.11;nan;97753.69;4952588;28;20229;-59
2023/05/03 11:00:24;;;;;;;8.43;7.73;;;;;;;15.33;nan;97752.50;4907121;28;20225;-59
2023/05/03 11:03:19;;;;;;;9.77;8.97;;;;;;;15.68;nan;97748.06;4930013;28;20488;-61
2023/05/03 11:05:48;;;;;;;9.50;8.50;;;;;;;15.70;nan;97746.88;4956245;28;20268;-60
2023/05/03 11:08:17;;;;;;;7.50;7.10;;;;;;;15.67;nan;97741.09;4914820;28;20732;-62
2023/05/03 11:10:45;;;;;;;8.73;8.03;;;;;;;16.02;nan;97743.63;4934817;28;20256;-58
2023/05/03 11:13:13;;;;;;;8.53;7.93;;;;;;;16.02;nan;97738.28;4957140;28;20268;-60
2023/05/03 11:15:42;;;;;;;7.93;7.30;;;;;;;16.18;nan;97731.69;4908149;28;20741;-58
2023/05/03 11:18:11;;;;;;;9.23;8.43;;;;;;;16.29;nan;97738.28;4951716;28;20530;-61
2023/05/03 11:20:39;;;;;;;8.67;7.97;;;;;;;16.19;nan;97738.69;4955686;28;20214;-63
2023/05/03 11:23:07;;;;;;;8.63;8.03;;;;;;;16.35;nan;97732.94;4909074;28;20213;-61
2023/05/03 11:25:34;;;;;;;9.20;8.50;;;;;;;16.57;nan;97723.84;4934986;28;21183;-60
2023/05/03 11:28:03;;;;;;;8.93;8.33;;;;;;;16.68;nan;97731.22;4950941;28;20242;-61
2023/05/03 11:30:33;;;;;;;9.10;8.37;;;;;;;16.75;nan;97725.84;4897679;28;20311;-60
2023/05/03 11:33:02;;;;;;;8.90;8.07;;;;;;;17.03;nan;97728.25;4948874;28;20726;-62
2023/05/03 11:35:31;;;;;;;8.00;7.40;;;;;;;16.85;nan;97731.56;4954011;28;20217;-62
2023/05/03 11:37:59;;;;;;;9.53;8.63;;;;;;;17.06;nan;97730.50;4932572;28;20276;-65
2023/05/03 11:40:27;;;;;;;9.10;8.47;;;;;;;17.02;nan;97721.25;4934770;28;20226;-61
2023/05/03 11:42:57;;;;;;;8.03;7.33;;;;;;;17.27;nan;97717.00;4938108;28;20214;-63
2023/05/03 11:45:26;;;;;;;7.93;7.20;;;;;;;17.63;nan;97720.94;4908081;28;20869;-62
2023/05/03 11:47:54;;;;;;;7.37;6.70;;;;;;;18.13;nan;97717.50;4955210;28;20726;-64
2023/05/03 11:50:27;;;;;;;7.40;6.90;;;;;;;17.87;nan;97718.50;4955641;28;20725;-62
2023/05/03 11:52:57;;;;;;;6.80;6.30;;;;;;;18.14;nan;97720.97;4930072;28;20802;-63
2023/05/03 11:55:26;;;;;;;6.97;6.47;;;;;;;18.17;nan;97707.13;4929611;28;20371;-64